UWGG 090900Z 21001MPS 9000 OVC008 M03/M04 Q1033 R36R/420145 NOSIG
QNH:(hPa/inHg/mmHg)1033 / 30.5 / 775
QFE:(hPa/inHg/mmHg)1024 / 30.22 / 768
Temperature-3
Dew Point-4
Visibility9000
Weather
Cloud CoverOVC (800);
Transition Altitude5000 ft.
Transition LevelFL60
SQUAWK